Time;durP1;ratioP1;P1;durP2;ratioP2;P2;SDS_P1;SDS_P2;PMS_P1;PMS_P2;Temp;Humidity;BMP_temperature;BMP_pressure;BME280_temperature;BME280_humidity;BME280_pressure;Samples;Min_cycle;Max_cycle;Signal;HPM_P1;HPM_P2
2022/02/07 00:01:41;;;;;;;321.23;306.33;;;4.60;99.90;;;;;;4419761;32;20178;-62
2022/02/07 00:04:09;;;;;;;328.53;314.50;;;4.50;99.90;;;;;;4421096;32;20159;-61
2022/02/07 00:06:36;;;;;;;311.90;298.20;;;4.40;99.90;;;;;;4423729;32;20165;-60
2022/02/07 00:09:04;;;;;;;295.83;282.43;;;4.40;99.90;;;;;;4422975;32;20171;-62
2022/02/07 00:11:32;;;;;;;301.57;288.87;;;4.50;99.90;;;;;;4422437;32;20595;-62
2022/02/07 00:13:59;;;;;;;301.57;288.90;;;4.50;99.90;;;;;;4422529;32;20211;-61
2022/02/07 00:16:25;;;;;;;298.10;285.37;;;4.50;99.90;;;;;;4423156;32;20658;-61
2022/02/07 00:18:52;;;;;;;304.07;290.77;;;4.40;99.90;;;;;;4422439;32;20156;-62
2022/02/07 00:21:19;;;;;;;330.37;315.17;;;4.30;99.90;;;;;;4422134;32;20591;-60
2022/02/07 00:23:46;;;;;;;323.63;309.27;;;4.30;99.90;;;;;;4421998;32;20468;-61
2022/02/07 00:26:14;;;;;;;336.73;322.03;;;4.20;99.90;;;;;;4423713;32;20179;-61
2022/02/07 00:28:44;;;;;;;340.27;326.00;;;4.10;99.90;;;;;;4422016;32;20191;-62
2022/02/07 00:31:14;;;;;;;311.10;297.23;;;4.30;99.90;;;;;;4420565;32;20188;-61
2022/02/07 00:33:40;;;;;;;317.30;302.80;;;4.40;99.90;;;;;;4421720;32;20195;-61
2022/02/07 00:36:07;;;;;;;364.07;348.40;;;4.70;99.90;;;;;;4422308;32;20186;-61
2022/02/07 00:38:34;;;;;;;371.60;355.87;;;4.70;99.90;;;;;;4423229;32;20454;-61
2022/02/07 00:41:16;;;;;;;367.03;351.83;;;4.00;99.90;;;;;;4423177;32;20531;-61
2022/02/07 00:43:47;;;;;;;379.90;363.90;;;3.60;99.90;;;;;;4420265;32;20186;-61
2022/02/07 00:46:21;;;;;;;381.93;365.50;;;3.40;99.90;;;;;;4420448;32;20587;-61
2022/02/07 00:48:48;;;;;;;377.10;361.07;;;3.30;99.90;;;;;;4422155;32;20209;-61
2022/02/07 00:51:15;;;;;;;365.03;349.93;;;3.00;99.90;;;;;;4421718;32;20216;-61
2022/02/07 00:53:42;;;;;;;371.90;356.10;;;3.10;99.90;;;;;;4422028;32;20219;-61
2022/02/07 00:56:09;;;;;;;379.30;363.33;;;3.10;99.90;;;;;;4420956;32;20198;-61
2022/02/07 00:58:36;;;;;;;365.77;350.27;;;2.90;99.90;;;;;;4423632;32;20162;-61
2022/02/07 01:01:04;;;;;;;382.73;366.60;;;2.90;99.90;;;;;;4420825;32;20548;-61
2022/02/07 01:03:31;;;;;;;372.20;356.63;;;2.80;99.90;;;;;;4421529;32;20482;-61
2022/02/07 01:05:58;;;;;;;374.43;358.63;;;2.90;99.90;;;;;;4421319;32;20225;-61
2022/02/07 01:08:35;;;;;;;378.30;362.27;;;2.80;99.90;;;;;;4421694;32;20175;-60
2022/02/07 01:11:10;;;;;;;372.30;356.63;;;2.80;99.90;;;;;;4420682;32;20213;-62
2022/02/07 01:13:52;;;;;;;355.70;340.97;;;2.70;99.90;;;;;;4420021;32;20451;-61
2022/02/07 01:16:41;;;;;;;364.20;348.47;;;2.70;99.90;;;;;;4418906;32;20156;-62
2022/02/07 01:19:30;;;;;;;378.93;362.77;;;2.70;99.90;;;;;;4421316;32;20701;-61
2022/02/07 01:47:08;;;;;;;353.37;337.73;;;3.80;99.90;;;;;;4358019;32;20218;-61
2022/02/07 01:49:58;;;;;;;343.23;328.77;;;3.60;99.90;;;;;;4359305;32;20609;-62
2022/02/07 01:52:44;;;;;;;351.00;335.77;;;3.40;99.90;;;;;;4358197;32;20167;-62
2022/02/07 01:55:18;;;;;;;379.07;361.73;;;3.40;99.90;;;;;;4358526;33;20260;-61
2022/02/07 01:57:55;;;;;;;379.30;362.13;;;3.30;99.90;;;;;;4357280;32;20164;-60
2022/02/07 02:00:22;;;;;;;387.97;370.90;;;3.30;99.90;;;;;;4357389;33;20156;-60
2022/02/07 02:02:49;;;;;;;410.33;392.53;;;3.30;99.90;;;;;;4413172;32;20170;-60
2022/02/07 02:05:18;;;;;;;384.30;367.33;;;3.30;99.90;;;;;;4421125;32;20575;-63
2022/02/07 02:07:49;;;;;;;392.30;373.30;;;3.40;99.90;;;;;;4419274;32;20167;-62
2022/02/07 02:10:17;;;;;;;380.53;363.27;;;3.50;99.90;;;;;;4417130;32;20197;-61
2022/02/07 02:12:54;;;;;;;394.23;376.70;;;3.60;99.90;;;;;;4420599;32;20151;-60
2022/02/07 02:15:35;;;;;;;392.23;374.70;;;3.50;99.90;;;;;;4419167;32;20236;-61
2022/02/07 02:18:48;;;;;;;373.00;356.07;;;3.50;99.90;;;;;;4418137;32;20491;-63
2022/02/07 02:35:27;;;;;;;402.03;383.43;;;3.90;99.90;;;;;;4420799;32;20212;-60
2022/02/07 02:37:58;;;;;;;366.37;349.67;;;4.10;99.90;;;;;;4414541;32;20151;-61
2022/02/07 02:46:01;;;;;;;364.43;348.17;;;4.20;99.90;;;;;;4357072;32;20617;-61
2022/02/07 02:48:29;;;;;;;366.87;349.97;;;4.30;99.90;;;;;;4356205;33;20183;-60
2022/02/07 02:51:04;;;;;;;350.23;334.77;;;4.50;99.90;;;;;;4356290;33;20180;-60
2022/02/07 02:53:31;;;;;;;377.00;359.20;;;4.60;99.90;;;;;;4358596;32;20163;-61
2022/02/07 02:55:59;;;;;;;368.17;351.53;;;4.50;99.90;;;;;;4358813;32;20251;-61
2022/02/07 02:58:26;;;;;;;361.87;345.57;;;4.60;99.90;;;;;;4357097;33;20173;-61
2022/02/07 03:00:54;;;;;;;374.70;357.13;;;4.50;99.90;;;;;;4357349;32;20602;-59
2022/02/07 03:03:21;;;;;;;352.03;335.03;;;4.60;99.90;;;;;;4357885;32;20242;-61
2022/02/07 03:05:48;;;;;;;347.30;331.73;;;4.70;99.90;;;;;;4357589;33;20169;-61
2022/02/07 03:08:18;;;;;;;332.80;318.17;;;4.70;99.90;;;;;;4355263;32;20161;-59
2022/02/07 03:10:55;;;;;;;332.30;317.33;;;4.80;99.90;;;;;;4357727;33;20176;-61
2022/02/07 03:13:44;;;;;;;316.27;301.83;;;4.90;99.90;;;;;;4356644;33;20169;-62
2022/02/07 03:18:56;;;;;;;303.60;289.70;;;4.70;99.90;;;;;;4361810;32;20613;-62
2022/02/07 03:21:23;;;;;;;317.70;303.10;;;4.60;99.90;;;;;;4419969;32;20151;-60
2022/02/07 03:23:50;;;;;;;307.80;294.20;;;4.60;99.90;;;;;;4417496;32;20233;-61
2022/02/07 03:26:18;;;;;;;291.67;278.90;;;4.90;99.90;;;;;;4421758;32;20209;-61
2022/02/07 03:28:48;;;;;;;301.40;288.30;;;4.70;99.90;;;;;;4417476;32;20194;-62
2022/02/07 03:31:19;;;;;;;284.43;271.27;;;4.60;99.90;;;;;;4419719;32;20542;-60
2022/02/07 03:33:46;;;;;;;310.30;296.00;;;4.90;99.90;;;;;;4420228;32;20199;-61
2022/02/07 03:36:14;;;;;;;312.47;298.60;;;4.80;99.90;;;;;;4422066;32;20171;-60
2022/02/07 03:38:41;;;;;;;298.47;284.87;;;4.70;99.90;;;;;;4421363;32;20248;-61
2022/02/07 03:41:11;;;;;;;322.43;307.43;;;4.80;99.90;;;;;;4422927;32;20650;-64
2022/02/07 03:43:38;;;;;;;345.77;329.93;;;5.00;99.90;;;;;;4421081;32;20218;-59
2022/02/07 03:46:06;;;;;;;338.73;323.50;;;5.00;99.90;;;;;;4423069;32;20218;-60
2022/02/07 03:48:34;;;;;;;362.43;346.50;;;5.10;99.90;;;;;;4421135;32;20541;-61
2022/02/07 03:51:00;;;;;;;331.67;316.87;;;5.10;99.90;;;;;;4423724;32;20209;-60
2022/02/07 03:53:27;;;;;;;338.37;323.50;;;5.10;99.90;;;;;;4420692;32;20538;-61
2022/02/07 03:55:54;;;;;;;357.57;341.27;;;5.00;99.90;;;;;;4422501;32;20225;-60
2022/02/07 03:58:21;;;;;;;335.03;319.70;;;5.10;99.90;;;;;;4422894;32;20183;-61
2022/02/07 04:00:49;;;;;;;329.00;313.30;;;5.10;99.90;;;;;;4421830;32;20170;-60
2022/02/07 04:03:18;;;;;;;340.50;325.50;;;5.40;99.90;;;;;;4422845;32;20190;-60
2022/02/07 04:05:49;;;;;;;320.37;305.37;;;5.30;99.90;;;;;;4423485;32;20152;-62
2022/02/07 04:08:17;;;;;;;336.37;321.77;;;5.40;99.90;;;;;;4423682;32;20155;-59
2022/02/07 04:10:51;;;;;;;321.87;307.17;;;5.40;99.90;;;;;;4421404;32;20165;-61
2022/02/07 04:13:25;;;;;;;321.00;306.33;;;5.50;99.90;;;;;;4420488;32;20154;-61
2022/02/07 04:15:53;;;;;;;341.43;325.80;;;5.40;99.90;;;;;;4421707;32;20234;-60
2022/02/07 04:18:23;;;;;;;316.73;303.07;;;5.40;99.90;;;;;;4421895;32;20152;-60
2022/02/07 04:20:50;;;;;;;341.33;325.47;;;5.50;99.90;;;;;;4421581;32;20586;-60
2022/02/07 04:23:17;;;;;;;320.40;306.43;;;5.60;99.90;;;;;;4424006;32;20571;-62
2022/02/07 04:25:44;;;;;;;330.43;315.57;;;5.60;99.90;;;;;;4422274;32;20207;-61
2022/02/07 04:28:12;;;;;;;334.67;319.53;;;5.80;99.90;;;;;;4421804;32;20167;-61
2022/02/07 04:30:39;;;;;;;361.83;345.10;;;5.70;99.90;;;;;;4419400;32;20152;-62
2022/02/07 04:33:06;;;;;;;364.43;347.43;;;5.60;99.90;;;;;;4423755;32;20187;-60
2022/02/07 04:35:34;;;;;;;365.50;348.37;;;5.50;99.90;;;;;;4422331;32;20533;-62
2022/02/07 04:38:01;;;;;;;372.27;355.03;;;5.40;99.90;;;;;;4422116;32;20174;-60
2022/02/07 04:40:28;;;;;;;377.30;360.73;;;5.10;99.90;;;;;;4420870;32;20182;-60
2022/02/07 04:42:55;;;;;;;379.80;362.33;;;5.00;99.90;;;;;;4421552;32;20224;-61
2022/02/07 04:51:39;;;;;;;364.87;348.37;;;5.20;99.90;;;;;;4379801;32;20171;-60
2022/02/07 04:54:30;;;;;;;346.13;330.67;;;5.30;99.90;;;;;;4380575;32;20246;-60
2022/02/07 04:57:07;;;;;;;387.37;369.70;;;5.30;99.90;;;;;;4382870;32;20556;-61
2022/02/07 04:59:43;;;;;;;354.03;337.67;;;5.20;99.90;;;;;;4382594;32;20164;-60
2022/02/07 05:02:17;;;;;;;384.17;367.13;;;5.30;99.90;;;;;;4380428;32;20189;-61
2022/02/07 05:04:51;;;;;;;378.77;361.60;;;5.20;99.90;;;;;;4378868;32;20174;-60
2022/02/07 05:15:34;;;;;;;365.93;347.80;;;5.10;99.90;;;;;;4382173;32;20194;-60
2022/02/07 05:18:01;;;;;;;364.93;348.43;;;5.00;99.90;;;;;;4377254;32;20602;-62
2022/02/07 05:20:28;;;;;;;360.57;343.50;;;5.10;99.90;;;;;;4382341;32;20165;-61
2022/02/07 05:22:56;;;;;;;369.47;352.53;;;5.10;99.90;;;;;;4383880;32;20179;-60
2022/02/07 05:25:23;;;;;;;379.83;362.47;;;5.30;99.90;;;;;;4399378;32;20160;-61
2022/02/07 05:27:49;;;;;;;379.63;361.93;;;5.20;99.90;;;;;;4421427;32;20178;-61
2022/02/07 05:30:16;;;;;;;368.20;350.80;;;5.30;99.90;;;;;;4421195;32;20222;-61
2022/02/07 05:32:43;;;;;;;367.30;350.70;;;5.20;99.90;;;;;;4419996;32;20155;-61
2022/02/07 05:35:10;;;;;;;405.63;386.77;;;5.00;99.90;;;;;;4421514;32;20186;-62
2022/02/07 05:37:37;;;;;;;390.27;373.03;;;5.00;99.90;;;;;;4421453;32;20186;-62
2022/02/07 05:40:11;;;;;;;374.80;357.17;;;5.10;99.90;;;;;;4421058;32;20155;-62
2022/02/07 05:42:39;;;;;;;369.17;352.30;;;5.20;99.90;;;;;;4419727;32;20151;-60
2022/02/07 05:45:07;;;;;;;382.27;364.17;;;5.40;99.90;;;;;;4420766;32;20541;-61
2022/02/07 05:47:34;;;;;;;385.33;367.77;;;5.30;99.90;;;;;;4419475;32;20214;-61
2022/02/07 05:50:01;;;;;;;379.67;361.80;;;5.30;99.90;;;;;;4421760;32;20483;-61
2022/02/07 05:52:28;;;;;;;388.70;369.93;;;5.30;99.90;;;;;;4421649;32;20167;-61
2022/02/07 05:54:55;;;;;;;384.93;367.53;;;5.10;99.90;;;;;;4420965;32;20530;-62
2022/02/07 05:57:23;;;;;;;409.20;389.43;;;5.00;99.90;;;;;;4418982;32;20206;-61
2022/02/07 05:59:50;;;;;;;389.40;371.10;;;4.90;99.90;;;;;;4422454;32;20518;-61
2022/02/07 06:02:17;;;;;;;407.90;388.57;;;4.80;99.90;;;;;;4420103;32;20151;-61
2022/02/07 06:04:43;;;;;;;401.63;383.00;;;4.80;99.90;;;;;;4420468;32;20167;-61
2022/02/07 06:07:10;;;;;;;415.47;396.47;;;5.00;99.90;;;;;;4421288;32;20238;-62
2022/02/07 06:09:37;;;;;;;400.30;381.27;;;5.10;99.90;;;;;;4414674;32;20783;-61
2022/02/07 06:12:05;;;;;;;393.93;375.37;;;5.20;99.90;;;;;;4401024;32;20238;-62
2022/02/07 06:14:37;;;;;;;379.03;361.73;;;5.20;99.90;;;;;;4404095;32;20199;-62
2022/02/07 06:17:05;;;;;;;405.97;387.63;;;5.10;99.90;;;;;;4404930;32;20548;-62
2022/02/07 06:19:31;;;;;;;393.70;375.30;;;5.10;99.90;;;;;;4418777;32;20591;-62
2022/02/07 06:21:58;;;;;;;406.13;387.57;;;5.30;99.90;;;;;;4419841;32;20159;-62
2022/02/07 06:24:25;;;;;;;398.67;379.67;;;5.30;99.90;;;;;;4417631;32;20588;-59
2022/02/07 06:26:52;;;;;;;399.93;380.63;;;5.50;99.90;;;;;;4420453;32;20212;-60
2022/02/07 06:29:19;;;;;;;376.80;357.93;;;5.50;99.90;;;;;;4412401;32;20253;-61
2022/02/07 06:31:47;;;;;;;375.70;357.83;;;5.50;99.90;;;;;;4411562;32;20157;-62
2022/02/07 06:34:14;;;;;;;388.60;369.77;;;5.60;99.90;;;;;;4416806;32;20207;-61
2022/02/07 06:36:41;;;;;;;379.67;362.27;;;5.60;99.90;;;;;;4411553;32;20164;-62
2022/02/07 06:39:15;;;;;;;393.90;375.27;;;5.60;99.90;;;;;;4397451;32;20591;-61
2022/02/07 06:41:48;;;;;;;380.27;362.47;;;5.40;99.90;;;;;;4401838;32;20205;-62
2022/02/07 06:44:18;;;;;;;390.17;371.57;;;5.40;99.90;;;;;;4400498;32;20290;-60
2022/02/07 06:46:45;;;;;;;381.57;363.23;;;5.20;99.90;;;;;;4415353;32;20215;-59
2022/02/07 06:49:16;;;;;;;377.03;358.67;;;5.00;99.90;;;;;;4400205;32;20245;-61
2022/02/07 06:51:52;;;;;;;387.53;369.17;;;4.90;99.90;;;;;;4404464;32;20177;-60
2022/02/07 06:54:19;;;;;;;403.60;384.30;;;4.90;99.90;;;;;;4404593;32;20252;-62
2022/02/07 06:56:48;;;;;;;405.23;386.17;;;4.70;99.90;;;;;;4403599;32;20638;-62
2022/02/07 06:59:17;;;;;;;415.10;395.73;;;4.70;99.90;;;;;;4407054;32;20152;-60
2022/02/07 07:01:48;;;;;;;401.17;381.90;;;4.60;99.90;;;;;;4406957;32;20235;-61
2022/02/07 07:04:16;;;;;;;400.23;381.40;;;4.60;99.90;;;;;;4409376;32;20233;-62
2022/02/07 07:06:43;;;;;;;415.87;395.23;;;4.50;99.90;;;;;;4415508;32;20168;-60
2022/02/07 07:09:12;;;;;;;405.50;386.17;;;4.70;99.90;;;;;;4417366;32;20136;-62
2022/02/07 07:11:41;;;;;;;384.70;366.53;;;4.60;99.90;;;;;;4418920;32;20204;-61
2022/02/07 07:14:16;;;;;;;393.63;375.13;;;4.60;99.90;;;;;;4417335;32;20457;-60
2022/02/07 07:16:51;;;;;;;411.43;391.63;;;4.70;99.90;;;;;;4418412;32;20217;-60
2022/02/07 07:19:20;;;;;;;393.43;374.47;;;4.70;99.90;;;;;;4419739;32;20554;-60
2022/02/07 07:21:48;;;;;;;406.83;387.40;;;4.80;99.90;;;;;;4418574;32;20544;-61
2022/02/07 07:24:17;;;;;;;399.77;381.37;;;4.80;99.90;;;;;;4417448;32;20589;-61
2022/02/07 07:26:44;;;;;;;393.23;374.83;;;4.80;99.90;;;;;;4419757;32;20202;-60
2022/02/07 07:29:15;;;;;;;392.87;374.67;;;4.90;99.90;;;;;;4417549;32;20152;-60
2022/02/07 07:31:46;;;;;;;378.23;360.60;;;5.10;99.90;;;;;;4419297;32;20541;-59
2022/02/07 07:34:15;;;;;;;388.33;369.70;;;5.40;99.90;;;;;;4418288;32;20187;-61
2022/02/07 07:36:44;;;;;;;413.93;394.87;;;5.40;99.90;;;;;;4420029;32;20186;-61
2022/02/07 07:39:12;;;;;;;392.90;374.13;;;5.60;99.90;;;;;;4418790;32;20582;-60
2022/02/07 07:41:40;;;;;;;379.67;362.10;;;5.60;99.90;;;;;;4419705;32;20485;-62
2022/02/07 07:44:07;;;;;;;395.60;377.03;;;5.60;99.90;;;;;;4418764;32;20159;-61
2022/02/07 07:46:34;;;;;;;399.37;380.07;;;5.60;99.90;;;;;;4418331;32;20173;-60
2022/02/07 07:49:05;;;;;;;393.07;374.47;;;5.50;99.90;;;;;;4420295;32;20581;-60
2022/02/07 07:51:45;;;;;;;401.33;382.77;;;5.50;99.90;;;;;;4416363;32;20190;-61
2022/02/07 07:54:23;;;;;;;397.67;378.30;;;5.70;99.90;;;;;;4418037;32;20187;-61
2022/02/07 08:02:23;;;;;;;396.93;378.27;;;5.80;99.90;;;;;;4419975;32;20528;-60
2022/02/07 08:04:53;;;;;;;389.33;371.47;;;6.00;99.90;;;;;;4416149;32;20187;-60
2022/02/07 08:07:22;;;;;;;387.27;368.80;;;6.10;99.90;;;;;;4419005;32;20183;-61
2022/02/07 08:10:19;;;;;;;396.13;376.37;;;6.20;99.90;;;;;;4419909;32;20201;-61
2022/02/07 08:12:49;;;;;;;369.90;352.80;;;6.30;99.90;;;;;;4418226;32;20208;-61
2022/02/07 08:15:17;;;;;;;394.30;375.13;;;6.40;99.90;;;;;;4417706;32;20208;-61
2022/02/07 08:17:44;;;;;;;393.37;374.40;;;6.40;99.90;;;;;;4419217;32;20271;-61
2022/02/07 08:20:12;;;;;;;394.60;374.50;;;6.30;99.90;;;;;;4420147;32;20648;-61
2022/02/07 08:22:39;;;;;;;389.83;370.83;;;6.20;99.90;;;;;;4422041;32;20190;-61
2022/02/07 08:25:08;;;;;;;397.80;378.67;;;6.20;99.90;;;;;;4420290;32;20190;-60
2022/02/07 08:27:35;;;;;;;397.33;378.77;;;6.10;99.90;;;;;;4422229;32;20151;-60
2022/02/07 08:30:02;;;;;;;410.43;390.93;;;6.10;99.90;;;;;;4421167;32;20167;-60
2022/02/07 08:32:29;;;;;;;403.83;384.63;;;6.00;99.90;;;;;;4422639;32;20151;-60
2022/02/07 08:35:00;;;;;;;419.13;399.67;;;6.00;99.90;;;;;;4422320;32;20210;-61
2022/02/07 08:37:27;;;;;;;378.20;360.20;;;6.10;99.90;;;;;;4419801;32;20189;-61
2022/02/07 08:39:54;;;;;;;383.37;365.40;;;6.20;99.90;;;;;;4423359;32;20151;-61
2022/02/07 08:42:23;;;;;;;402.33;383.43;;;6.30;99.90;;;;;;4420774;32;20147;-61
2022/02/07 08:44:49;;;;;;;388.63;370.77;;;6.20;99.90;;;;;;4420657;32;20160;-61
2022/02/07 08:47:17;;;;;;;388.13;369.50;;;6.20;99.90;;;;;;4422075;32;20152;-61
2022/02/07 08:49:45;;;;;;;386.13;368.03;;;6.20;99.90;;;;;;4423692;32;20151;-61
2022/02/07 08:52:13;;;;;;;380.00;362.30;;;6.20;99.90;;;;;;4418780;32;20270;-61
2022/02/07 08:54:40;;;;;;;402.57;383.27;;;6.30;99.90;;;;;;4421779;32;20160;-61
2022/02/07 08:57:19;;;;;;;387.87;369.60;;;6.30;99.90;;;;;;4421996;32;20163;-62
2022/02/07 08:59:58;;;;;;;380.30;363.23;;;6.50;99.90;;;;;;4421919;32;20179;-62
2022/02/07 09:02:50;;;;;;;386.30;368.07;;;6.50;99.90;;;;;;4419811;32;20646;-62
2022/02/07 09:05:35;;;;;;;374.17;355.57;;;6.50;99.90;;;;;;4419990;32;20161;-62
2022/02/07 09:08:20;;;;;;;369.00;351.60;;;6.50;99.90;;;;;;4421220;32;20178;-62
2022/02/07 09:10:48;;;;;;;369.80;352.17;;;6.50;99.90;;;;;;4422389;32;20202;-62
2022/02/07 09:13:16;;;;;;;383.23;365.10;;;6.60;99.90;;;;;;4420255;32;20631;-62
2022/02/07 09:15:55;;;;;;;384.50;366.90;;;6.70;99.90;;;;;;4421848;32;20152;-62
2022/02/07 09:18:24;;;;;;;383.37;365.37;;;6.80;99.90;;;;;;4421289;32;20163;-61
2022/02/07 09:20:54;;;;;;;380.33;362.47;;;7.00;99.90;;;;;;4419608;32;20164;-61
2022/02/07 09:23:21;;;;;;;377.80;360.93;;;7.10;99.90;;;;;;4420919;32;20163;-61
2022/02/07 09:25:53;;;;;;;354.23;338.37;;;7.00;99.90;;;;;;4421696;32;20204;-62
2022/02/07 09:28:20;;;;;;;358.77;342.43;;;6.90;99.90;;;;;;4421670;32;20572;-61
2022/02/07 09:30:53;;;;;;;375.87;359.00;;;6.90;99.90;;;;;;4421380;32;20204;-61
2022/02/07 09:33:20;;;;;;;366.03;349.10;;;6.90;99.90;;;;;;4418124;32;20168;-61
2022/02/07 09:35:54;;;;;;;371.43;354.47;;;7.00;99.90;;;;;;4421697;32;20484;-61
2022/02/07 09:38:22;;;;;;;358.43;340.73;;;7.00;99.90;;;;;;4422475;32;20163;-62
2022/02/07 09:40:52;;;;;;;365.60;348.27;;;7.00;99.90;;;;;;4420941;32;20179;-62
2022/02/07 09:43:20;;;;;;;382.57;364.73;;;6.90;99.90;;;;;;4420532;32;20182;-61
2022/02/07 09:45:49;;;;;;;377.87;359.67;;;7.00;99.90;;;;;;4420892;32;20205;-63
2022/02/07 09:48:17;;;;;;;375.57;358.33;;;7.20;99.90;;;;;;4420958;32;20156;-61
2022/02/07 09:50:44;;;;;;;352.83;335.97;;;7.20;99.90;;;;;;4421292;32;20196;-62
2022/02/07 09:53:12;;;;;;;369.63;352.53;;;7.20;99.90;;;;;;4419991;32;20459;-61
2022/02/07 09:55:39;;;;;;;365.73;348.87;;;7.30;99.90;;;;;;4418368;32;20168;-62
2022/02/07 09:58:06;;;;;;;373.60;356.43;;;7.40;99.90;;;;;;4421296;32;20621;-61
2022/02/07 10:00:35;;;;;;;348.20;331.90;;;7.60;99.90;;;;;;4421556;32;20556;-63
2022/02/07 10:03:11;;;;;;;350.00;334.13;;;7.70;99.90;;;;;;4421008;32;20189;-63
2022/02/07 10:05:48;;;;;;;334.03;319.20;;;7.90;99.90;;;;;;4418118;32;20148;-61
2022/02/07 10:08:33;;;;;;;328.07;313.87;;;8.00;99.90;;;;;;4419312;32;20190;-62
2022/02/07 10:11:19;;;;;;;326.33;310.27;;;8.30;99.90;;;;;;4419753;32;20159;-63
2022/02/07 10:13:54;;;;;;;336.17;321.00;;;8.40;99.90;;;;;;4420192;32;20195;-62
2022/02/07 10:19:25;;;;;;;348.57;333.10;;;8.40;99.90;;;;;;4417126;32;20598;-62
2022/02/07 10:38:43;;;;;;;334.07;319.03;;;9.00;99.90;;;;;;4373587;32;20607;-62
2022/02/07 10:41:38;;;;;;;327.90;313.17;;;9.00;99.90;;;;;;4374557;32;20196;-62
2022/02/07 10:44:33;;;;;;;329.03;314.57;;;8.90;99.90;;;;;;4362818;32;20256;-60
2022/02/07 10:47:07;;;;;;;340.97;325.47;;;8.70;99.90;;;;;;4375007;32;20156;-61
2022/02/07 10:49:35;;;;;;;344.53;329.00;;;8.40;99.90;;;;;;4361573;32;20188;-61
2022/02/07 10:52:04;;;;;;;333.00;318.00;;;8.50;99.90;;;;;;4373304;32;20192;-61
2022/02/07 10:54:30;;;;;;;364.27;347.80;;;8.60;99.90;;;;;;4368773;32;20197;-62
2022/02/07 10:56:57;;;;;;;372.77;355.13;;;8.60;99.90;;;;;;4372436;32;20216;-61
2022/02/07 10:59:25;;;;;;;370.10;352.30;;;8.30;99.90;;;;;;4373121;32;20235;-63
2022/02/07 11:04:41;;;;;;;367.57;351.13;;;8.30;99.90;;;;;;4390329;32;20191;-60
2022/02/07 11:07:11;;;;;;;350.93;334.97;;;8.40;99.90;;;;;;4392477;32;20175;-62
2022/02/07 11:09:42;;;;;;;369.87;353.13;;;8.30;99.90;;;;;;4391318;32;20168;-62
2022/02/07 11:15:13;;;;;;;365.87;349.53;;;8.30;99.90;;;;;;4387429;32;20472;-60
2022/02/07 11:18:09;;;;;;;382.47;364.50;;;8.30;99.90;;;;;;4392407;32;20148;-60
2022/02/07 11:21:01;;;;;;;342.17;326.93;;;8.60;99.90;;;;;;4396693;32;20196;-64
2022/02/07 11:23:44;;;;;;;363.13;346.40;;;8.50;99.90;;;;;;4396921;32;20184;-63
2022/02/07 11:26:29;;;;;;;342.70;327.47;;;8.80;99.90;;;;;;4393318;32;20213;-59
2022/02/07 11:28:55;;;;;;;345.80;330.27;;;9.10;99.90;;;;;;4390649;32;20151;-61
2022/02/07 11:31:32;;;;;;;357.23;341.03;;;9.00;99.90;;;;;;4390508;32;20166;-63
2022/02/07 11:34:12;;;;;;;353.10;337.13;;;8.90;99.90;;;;;;4390548;32;20195;-62
2022/02/07 11:36:41;;;;;;;309.20;295.47;;;9.10;99.90;;;;;;4392717;32;20535;-62
2022/02/07 11:39:12;;;;;;;332.23;317.43;;;9.30;99.90;;;;;;4391769;32;20167;-62
2022/02/07 11:42:11;;;;;;;324.40;310.23;;;9.20;99.90;;;;;;4390280;32;20198;-61
2022/02/07 11:45:20;;;;;;;354.83;338.90;;;9.10;99.90;;;;;;4390351;32;20589;-60
2022/02/07 11:47:48;;;;;;;345.40;330.20;;;9.00;99.90;;;;;;4387153;32;20234;-61
2022/02/07 11:50:21;;;;;;;360.00;344.57;;;8.90;99.90;;;;;;4405505;32;20179;-61
2022/02/07 11:52:50;;;;;;;357.30;341.03;;;8.90;99.90;;;;;;4405603;32;20164;-62
2022/02/07 11:55:19;;;;;;;372.97;356.23;;;8.70;99.90;;;;;;4405543;32;20189;-61
2022/02/07 11:57:54;;;;;;;371.60;355.13;;;8.60;99.90;;;;;;4400551;32;20157;-61
2022/02/07 12:00:23;;;;;;;373.40;357.17;;;8.50;99.90;;;;;;4394062;32;20552;-62
2022/02/07 12:02:52;;;;;;;375.60;359.27;;;8.50;99.90;;;;;;4392559;32;20216;-61
2022/02/07 12:05:20;;;;;;;371.80;355.67;;;8.40;99.90;;;;;;4394124;32;20575;-61
2022/02/07 12:08:03;;;;;;;366.60;350.37;;;8.10;99.90;;;;;;4397383;32;20167;-61
2022/02/07 12:10:38;;;;;;;377.23;360.47;;;7.70;99.90;;;;;;4408142;32;20166;-62
2022/02/07 12:13:31;;;;;;;377.60;360.67;;;7.50;99.90;;;;;;4408090;32;20195;-63
2022/02/07 12:16:03;;;;;;;380.40;363.43;;;7.40;99.90;;;;;;4407970;32;20158;-62
2022/02/07 12:18:30;;;;;;;384.17;366.67;;;7.50;99.90;;;;;;4407516;32;20157;-63
2022/02/07 12:21:17;;;;;;;385.00;368.13;;;7.40;99.90;;;;;;4408927;32;20485;-62
2022/02/07 12:23:46;;;;;;;390.57;372.80;;;7.50;99.90;;;;;;4409439;32;20152;-63
2022/02/07 12:26:17;;;;;;;388.50;370.87;;;7.40;99.90;;;;;;4408174;32;20180;-63
2022/02/07 12:28:46;;;;;;;389.23;371.33;;;7.60;99.90;;;;;;4396830;32;20156;-62
2022/02/07 12:31:19;;;;;;;380.37;363.20;;;7.80;99.90;;;;;;4392648;32;20201;-63
2022/02/07 12:33:53;;;;;;;379.97;363.00;;;7.90;99.90;;;;;;4392701;32;20167;-61
2022/02/07 12:36:22;;;;;;;376.50;359.40;;;8.20;99.90;;;;;;4392609;32;20583;-60
2022/02/07 12:38:50;;;;;;;360.27;344.03;;;8.40;99.90;;;;;;4393376;32;20195;-63
2022/02/07 12:41:20;;;;;;;370.07;353.23;;;8.50;99.90;;;;;;4392523;32;20182;-63
2022/02/07 12:43:50;;;;;;;352.07;337.10;;;8.70;99.90;;;;;;4392503;32;20178;-62
2022/02/07 12:46:18;;;;;;;357.70;342.00;;;8.90;99.90;;;;;;4393044;32;20550;-63
2022/02/07 12:48:51;;;;;;;352.17;336.50;;;9.00;99.90;;;;;;4397175;32;20246;-62
2022/02/07 12:51:21;;;;;;;355.97;340.43;;;9.30;99.90;;;;;;4408154;32;20156;-62
2022/02/07 12:53:52;;;;;;;348.17;333.10;;;9.30;99.90;;;;;;4407471;32;20172;-61
2022/02/07 12:56:21;;;;;;;321.07;307.13;;;9.40;99.90;;;;;;4407532;32;20182;-61
2022/02/07 12:58:51;;;;;;;308.07;294.40;;;9.30;99.90;;;;;;4404076;32;20596;-63
2022/02/07 13:01:23;;;;;;;332.03;317.43;;;9.20;99.90;;;;;;4407176;32;20208;-62
2022/02/07 13:03:52;;;;;;;355.23;339.87;;;9.10;99.90;;;;;;4407343;32;20191;-61
2022/02/07 13:06:25;;;;;;;352.00;336.40;;;9.20;99.90;;;;;;4407754;32;20545;-63
2022/02/07 13:08:53;;;;;;;365.63;350.13;;;9.10;99.90;;;;;;4402079;32;20174;-61
2022/02/07 13:11:28;;;;;;;321.60;307.43;;;9.00;99.90;;;;;;4392461;32;20163;-63
2022/02/07 13:13:55;;;;;;;359.50;343.63;;;8.70;99.90;;;;;;4392060;32;20168;-63
2022/02/07 13:16:23;;;;;;;356.43;341.03;;;8.60;99.90;;;;;;4392339;32;20203;-61
2022/02/07 13:18:50;;;;;;;354.63;338.90;;;8.50;99.90;;;;;;4394172;32;20156;-61
2022/02/07 13:21:18;;;;;;;373.17;356.97;;;8.50;99.90;;;;;;4391900;32;20471;-62
2022/02/07 13:23:49;;;;;;;338.50;323.47;;;8.50;99.90;;;;;;4391712;32;20437;-62
2022/02/07 13:26:17;;;;;;;322.77;309.07;;;8.70;99.90;;;;;;4392273;32;20172;-61
2022/02/07 13:28:46;;;;;;;318.77;305.17;;;8.50;99.90;;;;;;4393650;32;20147;-62
2022/02/07 13:31:13;;;;;;;345.10;330.60;;;8.40;99.90;;;;;;4407229;32;20163;-61
2022/02/07 13:33:50;;;;;;;353.70;338.27;;;8.40;99.90;;;;;;4401212;32;20170;-61
2022/02/07 13:36:28;;;;;;;384.23;367.47;;;8.20;99.90;;;;;;4391585;32;20625;-63
2022/02/07 13:39:02;;;;;;;388.07;370.93;;;8.10;99.90;;;;;;4392981;32;20152;-61
2022/02/07 13:41:30;;;;;;;395.63;378.43;;;7.90;99.90;;;;;;4391723;32;20146;-60
2022/02/07 13:44:01;;;;;;;415.77;397.33;;;7.90;99.90;;;;;;4391772;32;20165;-61
2022/02/07 13:46:33;;;;;;;396.70;379.33;;;7.80;99.90;;;;;;4391878;32;20165;-63
2022/02/07 13:49:02;;;;;;;385.93;369.37;;;7.80;99.90;;;;;;4390275;32;20179;-64
2022/02/07 13:51:30;;;;;;;371.70;355.33;;;7.90;99.90;;;;;;4405199;32;20162;-61
2022/02/07 13:53:57;;;;;;;335.97;321.17;;;7.90;99.90;;;;;;4406380;32;20148;-62
2022/02/07 13:56:33;;;;;;;343.53;328.53;;;8.00;99.90;;;;;;4405463;32;20203;-62
2022/02/07 13:59:16;;;;;;;349.87;334.40;;;8.10;99.90;;;;;;4406331;32;20147;-63
2022/02/07 14:01:48;;;;;;;324.30;310.27;;;7.90;99.90;;;;;;4403806;32;20168;-62
2022/02/07 14:04:20;;;;;;;345.57;331.03;;;7.90;99.90;;;;;;4404144;32;20165;-63
2022/02/07 14:07:07;;;;;;;374.37;358.40;;;7.70;99.90;;;;;;4405225;32;20288;-61
2022/02/07 14:09:34;;;;;;;372.00;355.83;;;7.70;99.90;;;;;;4403620;32;20182;-62
2022/02/07 14:12:03;;;;;;;368.80;352.30;;;7.60;99.90;;;;;;4405411;32;20178;-63